Time;durP1;ratioP1;P1;durP2;ratioP2;P2;SDS_P1;SDS_P2;PMS_P1;PMS_P2;Temp;Humidity;BMP_temperature;BMP_pressure;BME280_temperature;BME280_humidity;BME280_pressure;Samples;Min_cycle;Max_cycle;Signal;HPM_P1;HPM_P2
2022/08/16 00:00:45;;;;;;;5.15;3.85;;;20.90;68.10;;;;;;5003298;28;20109;-78
2022/08/16 00:03:11;;;;;;;5.10;3.80;;;20.90;68.40;;;;;;5004822;28;20056;-79
2022/08/16 00:05:37;;;;;;;4.43;3.58;;;20.80;67.90;;;;;;4990514;28;20064;-78
2022/08/16 00:08:03;;;;;;;4.93;4.00;;;20.80;69.20;;;;;;5015475;28;20030;-78
2022/08/16 00:10:29;;;;;;;3.55;3.25;;;20.80;69.20;;;;;;4987956;28;20106;-78
2022/08/16 00:12:55;;;;;;;4.05;3.72;;;20.80;68.40;;;;;;4987635;28;20042;-78
2022/08/16 00:15:26;;;;;;;4.60;4.05;;;20.70;69.10;;;;;;4988488;28;20045;-79
2022/08/16 00:17:51;;;;;;;4.40;4.00;;;20.60;68.30;;;;;;4988657;28;20390;-77
2022/08/16 00:20:17;;;;;;;3.70;3.38;;;20.60;68.30;;;;;;4987592;28;20029;-77
2022/08/16 00:22:43;;;;;;;4.10;3.80;;;20.60;68.90;;;;;;5002748;28;20026;-77
2022/08/16 00:25:10;;;;;;;4.88;4.10;;;20.60;69.70;;;;;;4988640;28;20022;-78
2022/08/16 00:27:37;;;;;;;3.60;3.30;;;20.60;70.10;;;;;;5003670;28;20030;-78
2022/08/16 00:30:04;;;;;;;6.57;5.03;;;20.60;70.90;;;;;;5007482;28;20106;-78
2022/08/16 00:32:30;;;;;;;5.28;4.18;;;20.60;71.20;;;;;;4998064;28;20109;-78
2022/08/16 00:34:56;;;;;;;5.28;4.28;;;20.50;70.40;;;;;;4999598;28;20109;-78
2022/08/16 00:37:22;;;;;;;5.10;4.55;;;20.50;73.00;;;;;;5008944;28;20056;-78
2022/08/16 00:39:48;;;;;;;5.78;4.18;;;20.50;71.80;;;;;;4999270;28;20045;-77
2022/08/16 00:42:14;;;;;;;7.10;4.43;;;20.50;72.00;;;;;;4993473;28;20037;-77
2022/08/16 00:44:39;;;;;;;3.50;3.20;;;20.60;73.50;;;;;;5008593;28;20033;-78
2022/08/16 00:47:07;;;;;;;4.72;4.15;;;20.50;71.00;;;;;;4992287;28;20044;-78
2022/08/16 00:49:33;;;;;;;5.82;4.75;;;20.40;72.30;;;;;;5010843;28;20489;-77
2022/08/16 00:51:59;;;;;;;5.07;4.35;;;20.40;72.40;;;;;;5027433;28;20056;-78
2022/08/16 00:54:26;;;;;;;4.78;4.28;;;20.60;71.90;;;;;;5017917;28;20432;-77
2022/08/16 00:56:52;;;;;;;5.93;4.13;;;20.40;74.10;;;;;;5005291;28;20041;-77
2022/08/16 00:59:20;;;;;;;4.30;3.90;;;20.40;72.90;;;;;;5025473;28;20248;-78
2022/08/16 01:01:45;;;;;;;6.50;4.20;;;20.50;73.30;;;;;;5006438;28;20087;-77
2022/08/16 01:04:11;;;;;;;4.65;4.18;;;20.40;73.50;;;;;;5011004;28;20033;-77
2022/08/16 01:06:37;;;;;;;5.03;4.18;;;20.50;74.60;;;;;;5004594;28;20435;-77
2022/08/16 01:09:05;;;;;;;7.30;4.50;;;20.50;73.80;;;;;;5027623;28;20041;-77
2022/08/16 01:11:31;;;;;;;5.53;3.97;;;20.50;75.60;;;;;;4993139;28;20412;-77
2022/08/16 01:14:13;;;;;;;7.28;3.95;;;20.40;73.80;;;;;;5010115;28;20021;-77
2022/08/16 01:16:39;;;;;;;4.50;3.47;;;20.40;74.00;;;;;;5024856;28;20505;-77
2022/08/16 01:19:27;;;;;;;5.05;4.55;;;20.40;73.50;;;;;;5010315;28;20086;-77
2022/08/16 01:22:00;;;;;;;4.15;3.85;;;20.40;75.60;;;;;;5003804;28;20564;-77
2022/08/16 01:24:43;;;;;;;4.88;4.45;;;20.30;74.40;;;;;;5000912;28;20536;-77
2022/08/16 01:27:16;;;;;;;4.88;3.72;;;20.30;74.60;;;;;;5002537;28;20482;-77
2022/08/16 01:30:06;;;;;;;4.63;3.83;;;20.30;75.30;;;;;;5005905;28;20036;-77
2022/08/16 01:32:34;;;;;;;5.68;4.80;;;20.30;74.50;;;;;;5007037;28;20113;-77
2022/08/16 01:35:02;;;;;;;4.88;4.38;;;20.40;74.40;;;;;;5016545;28;20466;-77
2022/08/16 01:37:28;;;;;;;5.15;4.22;;;20.40;75.00;;;;;;5005434;28;20201;-76
2022/08/16 01:39:54;;;;;;;7.32;4.90;;;20.40;75.80;;;;;;4989812;28;20504;-77
2022/08/16 01:42:19;;;;;;;6.07;4.43;;;20.30;75.00;;;;;;4990257;28;20053;-77
2022/08/16 01:44:45;;;;;;;4.63;4.22;;;20.30;76.40;;;;;;4999056;28;20157;-77
2022/08/16 01:47:11;;;;;;;7.75;5.03;;;20.10;75.30;;;;;;4990402;28;20474;-77
2022/08/16 01:49:40;;;;;;;5.78;4.70;;;20.30;76.80;;;;;;5003031;28;20379;-77
2022/08/16 01:52:09;;;;;;;4.85;4.45;;;20.20;75.20;;;;;;5015331;28;20116;-77
2022/08/16 01:54:36;;;;;;;5.78;5.03;;;20.20;76.40;;;;;;5002259;28;20037;-78
2022/08/16 01:57:02;;;;;;;5.07;4.40;;;20.20;77.80;;;;;;4989709;28;20040;-76
2022/08/16 01:59:28;;;;;;;5.97;4.72;;;20.20;74.60;;;;;;5004426;28;20560;-77
2022/08/16 02:01:53;;;;;;;6.43;4.50;;;20.20;76.50;;;;;;5003619;28;20123;-77
2022/08/16 02:04:20;;;;;;;4.78;3.70;;;20.20;75.20;;;;;;4994025;28;20037;-77
2022/08/16 02:06:45;;;;;;;4.13;3.72;;;20.10;75.50;;;;;;5008705;28;20382;-77
2022/08/16 02:09:11;;;;;;;6.03;4.60;;;20.20;76.10;;;;;;5009594;28;20029;-76
2022/08/16 02:11:37;;;;;;;5.55;5.05;;;20.20;78.00;;;;;;4998215;28;20037;-77
2022/08/16 02:14:04;;;;;;;7.50;4.93;;;20.20;76.70;;;;;;5009173;28;20505;-76
2022/08/16 02:16:29;;;;;;;6.38;5.57;;;20.10;75.30;;;;;;5003319;28;20038;-76
2022/08/16 02:18:55;;;;;;;4.38;3.97;;;20.00;76.60;;;;;;5005046;28;20032;-76
2022/08/16 02:21:20;;;;;;;5.88;4.85;;;20.00;76.20;;;;;;5006384;28;20120;-77
2022/08/16 02:23:46;;;;;;;8.88;4.88;;;20.00;77.60;;;;;;5005782;28;20037;-77
2022/08/16 02:26:12;;;;;;;5.70;4.07;;;20.10;77.80;;;;;;5005680;28;20030;-76
2022/08/16 02:28:38;;;;;;;4.90;4.38;;;20.10;77.30;;;;;;4987619;28;20032;-76
2022/08/16 02:31:06;;;;;;;4.03;3.72;;;20.10;76.20;;;;;;4996989;28;20061;-77
2022/08/16 02:33:32;;;;;;;5.57;3.95;;;20.10;76.10;;;;;;4990655;28;20088;-78
2022/08/16 02:35:58;;;;;;;4.93;4.18;;;20.10;77.10;;;;;;4989699;28;20042;-78
2022/08/16 02:38:23;;;;;;;7.20;4.47;;;20.00;77.90;;;;;;5003738;28;20036;-78
2022/08/16 02:40:49;;;;;;;5.88;4.10;;;20.00;76.80;;;;;;5000151;28;20041;-77
2022/08/16 02:43:15;;;;;;;6.80;4.72;;;20.00;76.70;;;;;;4989765;28;20096;-78
2022/08/16 02:45:40;;;;;;;5.82;3.88;;;19.90;78.10;;;;;;4989845;28;20042;-77
2022/08/16 02:48:06;;;;;;;3.30;3.00;;;19.90;77.50;;;;;;4991421;28;20033;-77
2022/08/16 02:50:32;;;;;;;4.90;4.20;;;20.00;76.30;;;;;;5024564;28;20037;-77
2022/08/16 02:52:57;;;;;;;7.85;4.70;;;19.90;79.20;;;;;;5008716;28;20029;-77
2022/08/16 02:55:23;;;;;;;6.20;4.85;;;19.80;77.90;;;;;;5005164;28;20087;-77
2022/08/16 02:57:49;;;;;;;7.60;4.80;;;19.70;79.50;;;;;;5009268;28;20060;-77
2022/08/16 03:00:16;;;;;;;4.97;4.07;;;19.70;78.60;;;;;;5008798;28;20095;-78
2022/08/16 03:02:43;;;;;;;7.68;5.05;;;19.60;77.90;;;;;;5023709;28;20037;-77
2022/08/16 03:05:10;;;;;;;5.40;4.45;;;19.60;78.50;;;;;;5010340;28;20030;-77
2022/08/16 03:07:35;;;;;;;13.95;5.20;;;19.50;77.50;;;;;;4990293;28;20022;-78
2022/08/16 03:10:01;;;;;;;6.00;4.03;;;19.50;80.20;;;;;;5009004;28;20029;-78
2022/08/16 03:12:27;;;;;;;5.07;4.43;;;19.50;78.80;;;;;;5020439;28;20030;-78
2022/08/16 03:14:52;;;;;;;4.03;3.67;;;19.50;79.40;;;;;;5020801;28;20076;-77
2022/08/16 03:17:18;;;;;;;6.15;5.00;;;19.40;78.90;;;;;;4986450;28;20053;-77
2022/08/16 03:19:44;;;;;;;4.97;4.22;;;19.30;80.90;;;;;;5006833;28;20784;-78
2022/08/16 03:22:09;;;;;;;3.85;3.55;;;19.20;79.50;;;;;;4987244;28;20030;-77
2022/08/16 03:24:35;;;;;;;5.60;3.97;;;19.20;81.00;;;;;;4987639;28;20034;-77
2022/08/16 03:27:01;;;;;;;5.55;4.40;;;19.40;81.10;;;;;;4987235;28;20029;-78
2022/08/16 03:29:27;;;;;;;5.07;4.30;;;19.40;80.50;;;;;;4988620;28;20509;-78
2022/08/16 03:31:53;;;;;;;5.60;5.07;;;19.30;81.20;;;;;;5002397;28;20034;-77
2022/08/16 03:34:18;;;;;;;4.60;4.00;;;19.30;82.90;;;;;;5004685;28;20061;-78
2022/08/16 03:36:44;;;;;;;5.30;4.25;;;19.20;82.90;;;;;;5004569;28;20046;-77
2022/08/16 03:39:10;;;;;;;6.95;4.95;;;19.30;82.00;;;;;;4992560;28;20126;-78
2022/08/16 03:41:36;;;;;;;5.78;4.85;;;19.30;83.20;;;;;;5018840;28;20659;-78
2022/08/16 03:44:01;;;;;;;5.55;5.03;;;19.20;84.50;;;;;;4985185;28;20092;-78
2022/08/16 03:46:27;;;;;;;7.00;5.40;;;19.10;85.00;;;;;;5033447;28;20026;-78
2022/08/16 03:48:54;;;;;;;7.93;4.28;;;19.00;86.60;;;;;;5011374;28;20057;-78
2022/08/16 03:51:20;;;;;;;8.77;5.10;;;19.00;84.60;;;;;;5005065;28;20095;-78
2022/08/16 03:53:45;;;;;;;8.38;5.60;;;18.90;84.20;;;;;;4995185;28;20117;-78
2022/08/16 03:56:11;;;;;;;8.57;6.00;;;18.90;85.00;;;;;;4989711;28;20116;-78
2022/08/16 03:58:36;;;;;;;7.63;5.57;;;18.80;88.80;;;;;;4985993;28;20441;-79
2022/08/16 04:01:02;;;;;;;7.43;6.00;;;18.70;90.20;;;;;;5001845;28;20038;-78
2022/08/16 04:03:28;;;;;;;6.15;5.53;;;18.60;90.00;;;;;;5004113;28;20088;-78
2022/08/16 04:05:54;;;;;;;4.53;4.13;;;18.60;88.40;;;;;;5003603;28;20030;-78
2022/08/16 04:08:20;;;;;;;6.93;5.07;;;18.60;87.40;;;;;;5004356;28;20143;-78
2022/08/16 04:10:46;;;;;;;7.45;5.22;;;18.60;90.60;;;;;;5003529;28;20120;-78
2022/08/16 04:13:12;;;;;;;5.68;4.50;;;18.50;87.80;;;;;;5007605;28;20566;-78
2022/08/16 04:15:37;;;;;;;5.30;4.82;;;18.50;87.50;;;;;;4998198;28;20270;-78
2022/08/16 04:18:03;;;;;;;5.18;4.72;;;18.50;87.60;;;;;;4998432;28;20042;-79
2022/08/16 04:20:29;;;;;;;6.85;5.30;;;18.50;88.40;;;;;;4979826;28;20026;-79
2022/08/16 04:22:55;;;;;;;4.78;4.00;;;18.50;90.10;;;;;;5006761;28;20030;-79
2022/08/16 04:25:21;;;;;;;5.20;3.88;;;18.60;87.50;;;;;;4991517;28;20069;-79
2022/08/16 04:27:46;;;;;;;4.40;3.58;;;18.70;88.10;;;;;;5004511;28;20030;-79
2022/08/16 04:30:14;;;;;;;4.72;4.22;;;18.70;89.50;;;;;;5008489;28;20041;-79
2022/08/16 04:32:40;;;;;;;6.25;4.57;;;18.70;89.20;;;;;;4979338;28;20049;-78
2022/08/16 04:35:06;;;;;;;7.10;4.90;;;18.60;90.90;;;;;;4989557;28;20037;-79
2022/08/16 04:37:32;;;;;;;9.68;4.53;;;18.40;92.20;;;;;;5002356;28;20460;-79
2022/08/16 04:39:57;;;;;;;8.45;5.82;;;18.30;91.10;;;;;;5001133;28;20129;-78
2022/08/16 04:42:23;;;;;;;5.38;3.95;;;18.50;91.80;;;;;;5042018;28;20057;-79
2022/08/16 04:44:48;;;;;;;6.47;5.85;;;18.40;90.50;;;;;;5010210;28;20045;-77
2022/08/16 04:47:14;;;;;;;5.00;4.55;;;18.50;91.30;;;;;;5026374;28;20033;-78
2022/08/16 04:49:40;;;;;;;7.78;5.68;;;18.40;90.70;;;;;;4986940;28;20053;-77
2022/08/16 04:52:05;;;;;;;8.88;5.18;;;18.40;90.90;;;;;;5027410;28;20048;-79
2022/08/16 04:54:31;;;;;;;6.70;5.05;;;18.40;91.00;;;;;;4993330;28;20025;-79
2022/08/16 04:56:56;;;;;;;10.88;5.45;;;18.40;92.70;;;;;;5022658;28;20559;-78
2022/08/16 04:59:22;;;;;;;13.43;5.75;;;18.40;92.50;;;;;;5027005;28;20416;-77
2022/08/16 05:01:47;;;;;;;11.88;5.65;;;18.40;91.50;;;;;;5010852;28;20107;-77
2022/08/16 05:04:13;;;;;;;6.72;5.72;;;18.40;92.80;;;;;;5008200;28;20029;-78
2022/08/16 05:06:39;;;;;;;9.07;5.32;;;18.40;93.50;;;;;;5008203;28;20124;-78
2022/08/16 05:09:04;;;;;;;6.35;5.25;;;18.40;92.50;;;;;;4991325;28;20029;-78
2022/08/16 05:11:30;;;;;;;6.38;4.82;;;18.60;92.40;;;;;;4991671;28;20100;-77
2022/08/16 05:13:55;;;;;;;6.10;5.47;;;18.50;92.30;;;;;;5025547;28;20507;-78
2022/08/16 05:16:28;;;;;;;7.05;5.85;;;18.60;93.20;;;;;;5025818;28;20056;-78
2022/08/16 05:18:55;;;;;;;7.07;4.30;;;18.70;93.30;;;;;;5038705;28;20375;-78
2022/08/16 05:21:20;;;;;;;4.78;3.70;;;18.80;90.90;;;;;;5023797;28;20041;-78
2022/08/16 05:23:46;;;;;;;6.97;4.10;;;19.00;90.70;;;;;;5002041;28;20444;-79
2022/08/16 05:26:12;;;;;;;6.97;4.43;;;19.10;89.20;;;;;;5022598;28;20136;-79
2022/08/16 05:28:37;;;;;;;5.32;4.82;;;19.20;90.60;;;;;;5041053;28;20116;-80
2022/08/16 05:31:03;;;;;;;4.68;3.95;;;19.20;90.40;;;;;;5024931;28;20076;-78
2022/08/16 05:33:28;;;;;;;6.50;4.60;;;19.30;90.50;;;;;;5008013;28;20045;-78
2022/08/16 05:35:54;;;;;;;6.75;4.07;;;19.40;90.40;;;;;;5003086;28;20057;-78
2022/08/16 05:38:26;;;;;;;5.82;4.63;;;19.50;91.60;;;;;;4990362;28;20084;-78
2022/08/16 05:40:53;;;;;;;6.43;3.90;;;19.50;91.00;;;;;;4994576;28;20562;-78
2022/08/16 05:43:18;;;;;;;6.10;4.35;;;19.70;90.00;;;;;;5011052;28;20483;-79
2022/08/16 05:45:44;;;;;;;6.45;4.28;;;19.80;90.80;;;;;;5008557;28;20037;-78
2022/08/16 05:48:10;;;;;;;8.13;4.70;;;19.90;91.50;;;;;;5023946;28;20111;-79
2022/08/16 05:50:35;;;;;;;5.50;4.80;;;20.00;91.70;;;;;;4995134;28;20029;-78
2022/08/16 05:53:01;;;;;;;9.38;4.90;;;20.00;92.20;;;;;;5004999;28;20034;-78
2022/08/16 05:55:26;;;;;;;5.40;3.55;;;20.10;91.00;;;;;;5011710;28;20443;-79
2022/08/16 05:57:52;;;;;;;6.47;3.67;;;20.30;88.50;;;;;;5022634;28;20104;-78
2022/08/16 06:00:18;;;;;;;7.93;4.07;;;20.40;88.10;;;;;;5024490;28;20455;-79
2022/08/16 06:02:43;;;;;;;3.45;3.15;;;20.50;86.60;;;;;;5005200;28;20083;-79
2022/08/16 06:05:09;;;;;;;4.00;3.50;;;20.60;86.80;;;;;;4994439;28;20032;-77
2022/08/16 06:07:35;;;;;;;6.57;4.35;;;20.70;85.00;;;;;;4983909;28;20121;-78
2022/08/16 06:10:00;;;;;;;4.93;4.50;;;20.80;89.80;;;;;;4993925;28;20030;-78
2022/08/16 06:12:28;;;;;;;4.55;3.33;;;20.90;88.70;;;;;;5002316;28;20037;-78
2022/08/16 06:14:57;;;;;;;5.10;3.72;;;21.10;86.10;;;;;;5015300;28;20437;-77
2022/08/16 06:17:23;;;;;;;4.18;3.58;;;21.10;87.90;;;;;;5002607;28;20463;-78
2022/08/16 06:19:49;;;;;;;8.15;4.55;;;21.30;85.90;;;;;;4993634;28;20041;-78
2022/08/16 06:22:15;;;;;;;4.70;4.20;;;21.40;88.60;;;;;;5017132;28;20052;-78
2022/08/16 06:24:43;;;;;;;4.25;3.80;;;21.50;85.60;;;;;;4996611;28;20482;-78
2022/08/16 06:27:08;;;;;;;3.78;3.42;;;21.60;84.90;;;;;;4979761;28;20030;-78
2022/08/16 06:29:34;;;;;;;4.00;3.33;;;21.80;83.70;;;;;;5023779;28;20031;-78
2022/08/16 06:32:00;;;;;;;5.25;3.88;;;21.90;83.00;;;;;;5023291;28;20124;-78
2022/08/16 06:34:25;;;;;;;4.88;4.03;;;22.10;85.40;;;;;;5009177;28;20084;-79
2022/08/16 06:36:51;;;;;;;4.30;3.90;;;22.20;84.10;;;;;;5002681;28;20034;-77
2022/08/16 06:39:16;;;;;;;4.13;3.83;;;22.40;83.50;;;;;;5005026;28;20026;-78
2022/08/16 06:41:42;;;;;;;5.97;4.25;;;22.40;83.70;;;;;;4992650;28;20084;-78
2022/08/16 06:44:08;;;;;;;4.45;3.95;;;22.60;83.50;;;;;;5003502;28;20084;-78
2022/08/16 06:46:36;;;;;;;7.40;4.35;;;22.60;84.00;;;;;;5012460;28;20045;-78
2022/08/16 06:49:02;;;;;;;3.75;3.42;;;22.80;83.70;;;;;;5008915;28;20025;-78
2022/08/16 06:51:28;;;;;;;5.88;4.50;;;22.90;83.70;;;;;;5018538;28;20033;-78
2022/08/16 06:53:54;;;;;;;4.22;3.63;;;23.10;82.00;;;;;;5001255;28;20820;-79
2022/08/16 06:56:19;;;;;;;4.03;3.67;;;23.20;81.60;;;;;;5012389;28;20042;-79
2022/08/16 06:58:45;;;;;;;6.38;4.28;;;23.30;81.40;;;;;;4999595;28;20101;-80
2022/08/16 07:01:11;;;;;;;3.97;3.55;;;23.40;81.40;;;;;;5004823;28;20038;-78
2022/08/16 07:03:36;;;;;;;5.57;3.65;;;23.50;81.60;;;;;;4988297;28;20156;-79
2022/08/16 07:06:02;;;;;;;3.92;3.58;;;23.70;80.10;;;;;;5004283;28;20022;-80
2022/08/16 07:08:28;;;;;;;4.25;3.85;;;23.80;78.80;;;;;;5019033;28;20041;-80
2022/08/16 07:10:54;;;;;;;4.18;3.78;;;23.90;79.60;;;;;;5014468;28;20030;-79
2022/08/16 07:13:20;;;;;;;4.95;3.83;;;24.10;80.00;;;;;;4980533;28;20045;-78
2022/08/16 07:15:48;;;;;;;3.78;3.47;;;24.20;79.20;;;;;;4978644;28;20033;-79
2022/08/16 07:18:14;;;;;;;6.65;4.20;;;24.40;78.70;;;;;;5007266;28;20033;-80
2022/08/16 07:20:40;;;;;;;3.90;3.55;;;24.50;77.90;;;;;;5007522;28;20041;-81
2022/08/16 07:23:07;;;;;;;6.40;4.28;;;24.60;78.60;;;;;;5002032;28;20040;-79
2022/08/16 07:25:33;;;;;;;5.25;3.88;;;24.80;78.00;;;;;;5004398;28;20030;-79
2022/08/16 07:27:59;;;;;;;5.70;3.90;;;24.80;77.50;;;;;;4997275;28;20032;-79
2022/08/16 07:30:25;;;;;;;6.38;3.60;;;24.90;77.40;;;;;;4999354;28;20136;-80
2022/08/16 07:32:50;;;;;;;7.40;4.28;;;25.10;76.80;;;;;;4995741;28;20481;-81
2022/08/16 07:35:19;;;;;;;5.18;4.22;;;25.30;77.30;;;;;;5007498;28;20036;-81
2022/08/16 07:37:44;;;;;;;5.72;4.80;;;25.40;76.30;;;;;;5004574;28;20033;-80
2022/08/16 07:40:11;;;;;;;7.82;4.13;;;25.50;77.70;;;;;;5022810;28;20021;-79
2022/08/16 07:42:36;;;;;;;3.85;3.45;;;25.60;75.20;;;;;;4989966;28;20018;-80
2022/08/16 07:45:03;;;;;;;3.67;3.35;;;25.80;76.40;;;;;;5006899;28;20385;-79
2022/08/16 07:47:29;;;;;;;7.30;4.10;;;25.90;75.80;;;;;;5000814;28;20060;-79
2022/08/16 07:49:55;;;;;;;7.88;4.13;;;26.20;75.60;;;;;;5019549;28;20034;-80
2022/08/16 07:52:21;;;;;;;4.82;3.60;;;26.20;75.60;;;;;;5005901;28;20034;-80
2022/08/16 07:54:46;;;;;;;4.82;4.15;;;26.30;74.20;;;;;;4998697;28;20030;-81
2022/08/16 07:57:12;;;;;;;5.88;3.85;;;26.50;73.90;;;;;;5014579;28;20121;-80
2022/08/16 07:59:38;;;;;;;4.47;3.65;;;26.60;72.10;;;;;;5002166;28;20385;-80
2022/08/16 08:02:04;;;;;;;6.60;4.13;;;26.80;72.20;;;;;;5021973;28;20034;-81
2022/08/16 08:04:31;;;;;;;8.93;4.78;;;26.90;71.90;;;;;;4978590;28;20508;-81
2022/08/16 08:06:57;;;;;;;3.90;3.50;;;27.00;72.60;;;;;;4991607;28;20022;-80
2022/08/16 08:09:23;;;;;;;4.38;3.95;;;27.00;71.90;;;;;;4998957;28;20041;-80
2022/08/16 08:11:49;;;;;;;5.30;3.88;;;27.30;72.00;;;;;;4997688;28;20041;-81
2022/08/16 08:14:15;;;;;;;5.80;3.75;;;27.30;70.70;;;;;;4980746;28;20130;-80
2022/08/16 08:16:41;;;;;;;6.90;4.22;;;27.30;71.80;;;;;;4969566;28;20072;-81
2022/08/16 08:19:09;;;;;;;5.63;3.72;;;27.50;71.20;;;;;;4994776;28;20588;-81
2022/08/16 08:21:35;;;;;;;7.68;4.88;;;27.60;70.50;;;;;;5011638;28;20033;-81
2022/08/16 08:24:01;;;;;;;3.95;3.55;;;27.80;69.90;;;;;;5014384;28;20029;-80
2022/08/16 08:26:27;;;;;;;9.20;4.85;;;28.00;69.50;;;;;;5018917;28;20132;-81
2022/08/16 08:28:53;;;;;;;4.85;3.70;;;28.10;69.20;;;;;;5004092;28;20066;-81
2022/08/16 08:31:18;;;;;;;4.88;3.90;;;28.00;69.10;;;;;;4995725;28;20033;-81
2022/08/16 08:33:44;;;;;;;4.35;3.58;;;28.10;69.20;;;;;;4973578;28;20052;-81
2022/08/16 08:36:13;;;;;;;10.32;4.75;;;28.50;67.20;;;;;;5005518;28;20040;-81
2022/08/16 08:38:39;;;;;;;4.10;3.72;;;28.60;67.10;;;;;;5004467;28;20044;-81
2022/08/16 08:41:07;;;;;;;7.65;4.78;;;28.60;68.00;;;;;;5019144;28;20424;-81
2022/08/16 08:43:34;;;;;;;5.80;3.97;;;28.60;69.30;;;;;;4989122;28;20030;-81
2022/08/16 08:45:59;;;;;;;4.55;3.72;;;28.80;67.90;;;;;;5003132;28;20518;-81
2022/08/16 08:48:25;;;;;;;4.40;3.72;;;29.00;66.30;;;;;;4988528;28;20022;-81
2022/08/16 08:50:51;;;;;;;4.82;4.00;;;29.10;67.20;;;;;;4989451;28;20252;-81
2022/08/16 08:53:17;;;;;;;4.53;4.10;;;29.30;66.80;;;;;;4989723;28;20121;-82
2022/08/16 08:55:42;;;;;;;5.40;4.80;;;29.30;65.20;;;;;;4999676;28;20030;-81
2022/08/16 08:58:08;;;;;;;10.63;4.32;;;29.60;65.00;;;;;;4976111;28;20084;-81
2022/08/16 09:00:33;;;;;;;5.30;3.80;;;29.70;64.70;;;;;;5010136;28;20393;-82
2022/08/16 09:02:59;;;;;;;8.30;4.28;;;29.80;63.30;;;;;;5013781;28;20092;-80
2022/08/16 09:05:26;;;;;;;4.30;3.90;;;30.10;63.80;;;;;;5015991;28;20434;-82
2022/08/16 09:07:52;;;;;;;4.40;3.72;;;30.30;62.80;;;;;;5009319;28;20041;-82
2022/08/16 09:10:18;;;;;;;5.10;3.75;;;30.30;62.60;;;;;;5008645;28;20033;-83
2022/08/16 09:12:45;;;;;;;5.93;4.45;;;30.30;62.90;;;;;;5008493;28;20034;-81
2022/08/16 09:15:11;;;;;;;4.57;3.70;;;30.30;61.40;;;;;;5008875;28;20509;-81
2022/08/16 09:17:37;;;;;;;4.35;3.95;;;30.30;62.40;;;;;;4993849;28;20408;-81
2022/08/16 09:20:05;;;;;;;5.47;3.70;;;30.30;63.20;;;;;;4993049;28;20034;-80
2022/08/16 09:22:31;;;;;;;4.75;3.92;;;30.40;62.60;;;;;;4996743;28;20045;-82
2022/08/16 09:24:57;;;;;;;4.45;3.95;;;31.30;59.40;;;;;;4993453;28;20038;-81
2022/08/16 09:27:23;;;;;;;7.32;4.18;;;31.60;57.90;;;;;;5008365;28;20369;-82
2022/08/16 09:29:49;;;;;;;5.00;3.60;;;31.50;58.50;;;;;;4999211;28;20029;-81
2022/08/16 09:32:18;;;;;;;5.80;3.70;;;31.30;58.80;;;;;;5009230;28;20141;-81
2022/08/16 09:34:44;;;;;;;4.05;3.55;;;31.30;60.10;;;;;;5026415;28;20087;-81
2022/08/16 09:37:09;;;;;;;3.53;3.22;;;31.30;59.20;;;;;;5027570;28;20037;-80
2022/08/16 09:39:35;;;;;;;4.90;3.55;;;31.10;60.20;;;;;;5025177;28;20040;-81
2022/08/16 09:42:01;;;;;;;7.63;4.47;;;31.20;60.00;;;;;;5010791;28;20034;-81
2022/08/16 09:44:27;;;;;;;3.63;3.28;;;31.30;59.60;;;;;;4997860;28;20033;-82
2022/08/16 09:46:53;;;;;;;7.38;3.17;;;31.50;59.50;;;;;;4990483;28;20034;-83
2022/08/16 09:49:19;;;;;;;4.45;3.65;;;31.50;59.60;;;;;;4989480;28;20037;-83
2022/08/16 09:51:45;;;;;;;5.88;4.90;;;31.80;59.00;;;;;;4995728;28;20048;-82
2022/08/16 09:54:11;;;;;;;5.13;3.97;;;31.70;59.00;;;;;;5006870;28;20375;-81
2022/08/16 09:56:38;;;;;;;7.82;3.67;;;31.80;58.50;;;;;;4989487;28;20034;-82
2022/08/16 09:59:05;;;;;;;5.18;3.60;;;31.80;58.40;;;;;;4997546;28;20038;-82
2022/08/16 10:01:30;;;;;;;3.88;3.47;;;32.00;58.10;;;;;;4977766;28;20030;-82
2022/08/16 10:03:56;;;;;;;5.10;3.90;;;32.20;57.90;;;;;;5003832;28;20161;-82
2022/08/16 10:06:22;;;;;;;5.53;4.60;;;32.80;56.40;;;;;;5012880;28;20026;-81
2022/08/16 10:08:48;;;;;;;7.38;4.07;;;33.20;56.20;;;;;;4992845;28;20057;-82
2022/08/16 10:13:58;;;;;;;4.63;4.22;;;32.60;56.40;;;;;;5015611;28;20114;-84
2022/08/16 10:16:23;;;;;;;7.43;4.72;;;33.30;54.50;;;;;;5004374;28;20305;-83
2022/08/16 10:18:49;;;;;;;5.13;3.38;;;33.30;55.20;;;;;;5002103;28;20113;-84
2022/08/16 10:21:15;;;;;;;7.15;3.80;;;33.10;56.20;;;;;;4972606;28;20098;-84
2022/08/16 10:23:42;;;;;;;4.28;3.72;;;33.30;56.20;;;;;;4988314;28;20038;-84
2022/08/16 10:26:08;;;;;;;12.00;5.07;;;33.70;54.80;;;;;;5004179;28;20087;-84
2022/08/16 10:28:33;;;;;;;6.30;4.03;;;33.80;53.70;;;;;;4993466;28;20037;-84
2022/08/16 10:31:02;;;;;;;9.07;4.63;;;33.40;54.20;;;;;;5008416;28;20481;-84
2022/08/16 10:33:28;;;;;;;5.63;5.03;;;33.40;53.90;;;;;;4983337;28;20065;-82
2022/08/16 10:35:54;;;;;;;5.78;3.80;;;33.50;55.00;;;;;;5001834;28;20065;-82
2022/08/16 10:38:19;;;;;;;4.07;3.40;;;34.00;53.40;;;;;;4992049;28;20494;-82
2022/08/16 10:40:45;;;;;;;4.78;4.28;;;35.00;51.40;;;;;;5006461;28;20101;-83
2022/08/16 10:43:11;;;;;;;3.95;3.50;;;35.20;51.00;;;;;;5011916;28;20038;-82
2022/08/16 10:45:37;;;;;;;5.43;4.07;;;35.30;49.90;;;;;;4985228;28;20030;-81
2022/08/16 10:48:05;;;;;;;4.15;3.75;;;34.80;52.00;;;;;;4986239;28;20042;-85
2022/08/16 10:50:31;;;;;;;5.05;3.80;;;34.70;51.50;;;;;;4986592;28;20041;-82
2022/08/16 10:52:57;;;;;;;7.72;3.90;;;34.40;52.50;;;;;;4985256;28;20034;-83
2022/08/16 10:55:22;;;;;;;5.13;3.58;;;34.30;52.90;;;;;;4973010;28;20037;-83
2022/08/16 10:57:48;;;;;;;9.30;4.07;;;34.20;52.70;;;;;;5003477;28;20033;-82
2022/08/16 11:00:14;;;;;;;8.27;3.88;;;34.20;52.40;;;;;;5007847;28;20044;-83
2022/08/16 11:02:40;;;;;;;5.75;4.25;;;34.20;52.20;;;;;;4983134;28;20038;-82
2022/08/16 11:05:11;;;;;;;4.43;3.80;;;34.20;52.10;;;;;;5010761;28;20037;-82
2022/08/16 11:07:38;;;;;;;5.53;4.07;;;34.70;51.40;;;;;;5020221;28;20052;-82
2022/08/16 11:10:04;;;;;;;6.65;3.65;;;35.00;49.60;;;;;;4988130;28;20280;-83
2022/08/16 11:12:30;;;;;;;4.78;4.32;;;34.80;50.90;;;;;;5021162;28;20033;-83
2022/08/16 11:14:57;;;;;;;4.20;3.80;;;35.00;50.60;;;;;;4994360;28;20125;-82
2022/08/16 11:17:25;;;;;;;4.28;3.05;;;34.90;50.90;;;;;;5007793;28;20041;-84
2022/08/16 11:19:51;;;;;;;6.50;3.78;;;35.40;48.70;;;;;;5005922;28;20046;-83
2022/08/16 11:22:18;;;;;;;8.13;4.50;;;35.70;48.30;;;;;;5006727;28;20026;-84
2022/08/16 11:24:45;;;;;;;3.75;3.20;;;35.10;48.80;;;;;;5008353;28;20025;-82
2022/08/16 11:27:16;;;;;;;6.60;3.80;;;35.30;49.00;;;;;;5007006;28;20112;-83
2022/08/16 11:29:42;;;;;;;6.28;4.38;;;35.30;48.40;;;;;;4985429;28;20045;-84
2022/08/16 11:32:08;;;;;;;5.15;4.40;;;35.00;49.50;;;;;;4999195;28;20030;-82
2022/08/16 11:34:33;;;;;;;4.80;3.63;;;35.20;49.20;;;;;;4994148;28;20030;-82
2022/08/16 11:36:59;;;;;;;4.63;3.30;;;36.20;46.20;;;;;;5033107;28;20429;-83
2022/08/16 11:39:26;;;;;;;6.63;4.15;;;35.60;48.70;;;;;;5001330;28;20030;-81
2022/08/16 11:41:51;;;;;;;3.72;3.42;;;35.60;47.30;;;;;;4986649;28;20465;-83
2022/08/16 11:44:17;;;;;;;4.90;2.92;;;35.30;48.50;;;;;;4984539;28;20125;-83
2022/08/16 11:46:42;;;;;;;3.50;3.10;;;35.80;47.10;;;;;;4986938;28;20099;-84
2022/08/16 11:49:08;;;;;;;5.43;3.40;;;35.80;47.00;;;;;;5014198;28;20340;-84
2022/08/16 11:51:34;;;;;;;4.15;3.20;;;36.20;47.20;;;;;;4993292;28;20034;-85
2022/08/16 11:54:00;;;;;;;4.85;3.25;;;36.40;46.90;;;;;;5004302;28;20676;-84
2022/08/16 11:56:26;;;;;;;3.38;3.08;;;36.80;45.00;;;;;;5015640;28;20064;-84
2022/08/16 11:58:52;;;;;;;5.05;3.65;;;36.70;45.30;;;;;;4992882;28;20042;-83
2022/08/16 12:01:17;;;;;;;3.45;2.97;;;36.80;45.10;;;;;;5002441;28;20045;-83
2022/08/16 12:03:43;;;;;;;4.65;3.38;;;36.60;45.40;;;;;;5012593;28;20033;-83
2022/08/16 12:06:12;;;;;;;6.35;3.80;;;36.30;46.10;;;;;;5004180;28;20554;-84
2022/08/16 12:08:38;;;;;;;5.10;3.30;;;36.10;46.70;;;;;;4996634;28;20034;-83
2022/08/16 12:11:04;;;;;;;4.97;3.65;;;36.20;46.50;;;;;;4643550;28;10000473;-83
2022/08/16 12:13:30;;;;;;;3.92;3.15;;;36.20;45.40;;;;;;4990946;28;20040;-85
2022/08/16 12:15:56;;;;;;;9.40;3.65;;;37.00;44.90;;;;;;5000882;28;20045;-83
2022/08/16 12:18:21;;;;;;;5.43;3.42;;;37.40;43.80;;;;;;4988416;28;20623;-84
2022/08/16 12:20:47;;;;;;;4.13;3.25;;;37.80;42.20;;;;;;5004783;28;20034;-84
2022/08/16 12:23:13;;;;;;;3.35;3.03;;;37.70;42.60;;;;;;5003051;28;20052;-83
2022/08/16 12:25:38;;;;;;;9.30;3.72;;;37.60;42.20;;;;;;4986110;28;20033;-84
2022/08/16 12:28:05;;;;;;;4.68;3.20;;;37.20;44.10;;;;;;5014693;28;20036;-82
2022/08/16 12:30:34;;;;;;;7.95;3.72;;;37.20;43.10;;;;;;4991285;28;20029;-83
2022/08/16 12:33:00;;;;;;;4.35;3.45;;;37.30;43.10;;;;;;4990953;28;20084;-84
2022/08/16 12:35:26;;;;;;;4.35;3.20;;;37.00;44.40;;;;;;5003146;28;20030;-84
2022/08/16 12:37:52;;;;;;;4.82;2.78;;;36.60;44.70;;;;;;5003773;28;20041;-84
2022/08/16 12:40:22;;;;;;;3.65;3.00;;;36.50;45.30;;;;;;4988969;28;20561;-84
2022/08/16 12:42:48;;;;;;;5.15;3.35;;;36.60;44.70;;;;;;4988598;28;20458;-84